Time;durP1;ratioP1;P1;durP2;ratioP2;P2;SDS_P1;SDS_P2;PMS_P1;PMS_P2;Temp;Humidity;BMP_temperature;BMP_pressure;BME280_temperature;BME280_humidity;BME280_pressure;Samples;Min_cycle;Max_cycle;Signal;HPM_P1;HPM_P2
2023/08/28 00:00:51;;;;;;;7.57;2.90;;;;;;;;;;5033081;28;20126;-74
2023/08/28 00:03:17;;;;;;;6.65;2.75;;;;;;;;;;5035015;28;20124;-74
2023/08/28 00:05:43;;;;;;;5.70;2.90;;;;;;;;;;5032991;28;20075;-74
2023/08/28 00:08:10;;;;;;;4.43;2.80;;;;;;;;;;5034132;28;20043;-74
2023/08/28 00:10:37;;;;;;;4.13;2.70;;;;;;;;;;5032081;28;20041;-74
2023/08/28 00:13:03;;;;;;;5.65;3.38;;;;;;;;;;5019245;28;20053;-74
2023/08/28 00:15:29;;;;;;;4.60;2.92;;;;;;;;;;5032700;28;20045;-74
2023/08/28 00:17:55;;;;;;;8.50;2.92;;;;;;;;;;5035641;28;20111;-74
2023/08/28 00:20:21;;;;;;;6.05;3.20;;;;;;;;;;5011212;28;20140;-74
2023/08/28 00:22:47;;;;;;;8.65;3.28;;;;;;;;;;5014914;28;20064;-74
2023/08/28 00:25:13;;;;;;;6.80;3.10;;;;;;;;;;5011244;28;22088;-75
2023/08/28 00:27:39;;;;;;;4.05;2.83;;;;;;;;;;5000217;28;20037;-74
2023/08/28 00:30:05;;;;;;;3.97;2.70;;;;;;;;;;5011547;28;20048;-74
2023/08/28 00:32:33;;;;;;;5.18;2.53;;;;;;;;;;5010493;28;20052;-74
2023/08/28 00:34:59;;;;;;;7.75;2.80;;;;;;;;;;5011264;28;20053;-74
2023/08/28 00:37:25;;;;;;;2.92;2.65;;;;;;;;;;5008004;28;20051;-74
2023/08/28 00:39:52;;;;;;;4.03;2.78;;;;;;;;;;5010640;28;20095;-74
2023/08/28 00:42:18;;;;;;;3.45;2.95;;;;;;;;;;5010787;28;20052;-74
2023/08/28 00:44:44;;;;;;;5.68;3.13;;;;;;;;;;5008592;28;20110;-74
2023/08/28 00:47:10;;;;;;;7.72;2.83;;;;;;;;;;5009155;28;20044;-74
2023/08/28 00:49:36;;;;;;;6.22;3.10;;;;;;;;;;5010597;28;20456;-74
2023/08/28 00:52:03;;;;;;;8.35;3.55;;;;;;;;;;5006589;28;20124;-74
2023/08/28 00:54:30;;;;;;;4.82;3.08;;;;;;;;;;5010407;28;20056;-74
2023/08/28 00:56:56;;;;;;;4.03;3.05;;;;;;;;;;5010209;28;20520;-74
2023/08/28 00:59:23;;;;;;;6.03;3.00;;;;;;;;;;5009682;28;20046;-75
2023/08/28 01:01:49;;;;;;;5.40;3.30;;;;;;;;;;5010969;28;20048;-74
2023/08/28 01:04:15;;;;;;;5.20;3.08;;;;;;;;;;5012286;28;20045;-75
2023/08/28 01:06:59;;;;;;;3.60;3.30;;;;;;;;;;5009849;28;20049;-74
2023/08/28 01:09:28;;;;;;;4.68;3.00;;;;;;;;;;5010243;28;20124;-74
2023/08/28 01:12:13;;;;;;;4.82;2.80;;;;;;;;;;5011376;28;20059;-74
2023/08/28 01:14:50;;;;;;;5.80;3.22;;;;;;;;;;5008463;28;20107;-74
2023/08/28 01:17:17;;;;;;;6.45;3.30;;;;;;;;;;5008287;28;20056;-74
2023/08/28 01:19:44;;;;;;;7.95;3.30;;;;;;;;;;5010440;28;20164;-74
2023/08/28 01:22:21;;;;;;;4.85;2.80;;;;;;;;;;5010504;28;20056;-74
2023/08/28 01:24:52;;;;;;;6.95;2.35;;;;;;;;;;5007692;28;20052;-74
2023/08/28 01:27:20;;;;;;;5.95;2.92;;;;;;;;;;5011443;28;20128;-74
2023/08/28 01:29:46;;;;;;;4.20;2.42;;;;;;;;;;5008811;28;20049;-74
2023/08/28 01:32:12;;;;;;;7.22;2.97;;;;;;;;;;5009489;28;20542;-74
2023/08/28 01:34:40;;;;;;;6.00;3.00;;;;;;;;;;5010057;28;21843;-74
2023/08/28 01:37:13;;;;;;;6.70;2.80;;;;;;;;;;5013128;28;20140;-74
2023/08/28 01:39:42;;;;;;;6.65;2.70;;;;;;;;;;5015393;28;20056;-74
2023/08/28 01:42:08;;;;;;;3.85;2.50;;;;;;;;;;5015284;28;20102;-74
2023/08/28 01:44:35;;;;;;;2.80;2.60;;;;;;;;;;5013539;28;20045;-74
2023/08/28 01:47:01;;;;;;;4.97;2.60;;;;;;;;;;5007235;28;20179;-74
2023/08/28 01:49:29;;;;;;;4.68;2.90;;;;;;;;;;5009636;28;20049;-74
2023/08/28 01:51:55;;;;;;;4.28;2.33;;;;;;;;;;5011881;28;20053;-74
2023/08/28 01:54:22;;;;;;;5.93;3.10;;;;;;;;;;5009760;28;20972;-74
2023/08/28 01:56:49;;;;;;;6.65;2.97;;;;;;;;;;5008190;28;20664;-74
2023/08/28 01:59:15;;;;;;;3.85;2.50;;;;;;;;;;5014376;28;20498;-74
2023/08/28 02:01:41;;;;;;;7.45;2.92;;;;;;;;;;4997151;28;20044;-74
2023/08/28 02:04:07;;;;;;;4.28;2.90;;;;;;;;;;5011899;28;20041;-74
2023/08/28 02:06:33;;;;;;;5.38;2.67;;;;;;;;;;5014466;28;20092;-74
2023/08/28 02:08:59;;;;;;;5.22;3.00;;;;;;;;;;5014900;28;20056;-74
2023/08/28 02:11:26;;;;;;;6.43;3.22;;;;;;;;;;5011229;28;20041;-74
2023/08/28 02:13:52;;;;;;;5.30;2.63;;;;;;;;;;5011416;28;20561;-74
2023/08/28 02:16:18;;;;;;;5.38;2.50;;;;;;;;;;5011309;28;21933;-74
2023/08/28 02:18:44;;;;;;;4.82;3.00;;;;;;;;;;5016203;28;20073;-74
2023/08/28 02:21:10;;;;;;;4.07;2.55;;;;;;;;;;5014033;28;20067;-74
2023/08/28 02:23:36;;;;;;;5.93;2.88;;;;;;;;;;5030848;28;20099;-74
2023/08/28 02:26:03;;;;;;;4.72;2.60;;;;;;;;;;5009702;28;20053;-74
2023/08/28 02:28:29;;;;;;;4.28;2.50;;;;;;;;;;5012360;28;20127;-74
2023/08/28 02:30:58;;;;;;;2.97;1.98;;;;;;;;;;5030774;28;20040;-74
2023/08/28 02:33:24;;;;;;;2.40;1.98;;;;;;;;;;5015381;28;20087;-74
2023/08/28 02:35:50;;;;;;;2.97;2.22;;;;;;;;;;5016041;28;20163;-74
2023/08/28 02:38:17;;;;;;;3.17;1.90;;;;;;;;;;5013538;28;20044;-74
2023/08/28 02:40:43;;;;;;;6.72;2.13;;;;;;;;;;5015887;28;20060;-75
2023/08/28 02:43:09;;;;;;;6.30;2.90;;;;;;;;;;5000348;28;20167;-75
2023/08/28 02:45:36;;;;;;;5.35;2.40;;;;;;;;;;5030709;28;20048;-75
2023/08/28 02:48:03;;;;;;;3.63;2.30;;;;;;;;;;5013136;28;22081;-74
2023/08/28 02:50:29;;;;;;;4.45;2.70;;;;;;;;;;5031027;28;20510;-75
2023/08/28 02:52:55;;;;;;;6.22;2.53;;;;;;;;;;5027002;28;20051;-74
2023/08/28 02:55:22;;;;;;;3.72;2.88;;;;;;;;;;5033318;28;20057;-75
2023/08/28 02:57:48;;;;;;;12.73;3.25;;;;;;;;;;5034194;28;20508;-74
2023/08/28 03:00:14;;;;;;;5.28;3.25;;;;;;;;;;5014983;28;20575;-74
2023/08/28 03:02:41;;;;;;;7.45;3.85;;;;;;;;;;5013394;28;21923;-74
2023/08/28 03:05:07;;;;;;;6.38;3.40;;;;;;;;;;5016265;28;20041;-74
2023/08/28 03:07:33;;;;;;;5.75;3.78;;;;;;;;;;5030383;28;20994;-75
2023/08/28 03:09:59;;;;;;;10.15;4.07;;;;;;;;;;5015653;28;20649;-74
2023/08/28 03:12:25;;;;;;;6.07;3.72;;;;;;;;;;5031437;28;20052;-74
2023/08/28 03:14:51;;;;;;;6.20;3.92;;;;;;;;;;5015340;28;20045;-74
2023/08/28 03:17:17;;;;;;;6.50;4.22;;;;;;;;;;5014145;28;20033;-74
2023/08/28 03:19:43;;;;;;;5.15;4.10;;;;;;;;;;5031636;28;20056;-74
2023/08/28 03:22:09;;;;;;;6.10;4.93;;;;;;;;;;5031232;28;20152;-74
2023/08/28 03:24:35;;;;;;;9.35;3.95;;;;;;;;;;5035781;28;20527;-74
2023/08/28 03:27:01;;;;;;;5.85;4.00;;;;;;;;;;5014932;28;20206;-74
2023/08/28 03:29:28;;;;;;;4.40;3.58;;;;;;;;;;5015947;28;20114;-74
2023/08/28 03:31:54;;;;;;;7.90;3.83;;;;;;;;;;5013279;28;20107;-74
2023/08/28 03:34:20;;;;;;;4.20;3.80;;;;;;;;;;5013039;28;20049;-74
2023/08/28 03:36:46;;;;;;;5.18;3.63;;;;;;;;;;5016705;28;20045;-74
2023/08/28 03:39:12;;;;;;;4.50;4.03;;;;;;;;;;5030615;28;20075;-74
2023/08/28 03:41:38;;;;;;;8.98;4.75;;;;;;;;;;5009827;28;21129;-74
2023/08/28 03:44:04;;;;;;;5.75;4.15;;;;;;;;;;5013878;28;20135;-74
2023/08/28 03:46:30;;;;;;;8.35;4.35;;;;;;;;;;5030641;28;20037;-74
2023/08/28 03:48:56;;;;;;;10.80;4.35;;;;;;;;;;5031065;28;20071;-74
2023/08/28 03:51:22;;;;;;;7.38;4.13;;;;;;;;;;4997282;28;20560;-74
2023/08/28 03:53:48;;;;;;;5.05;3.92;;;;;;;;;;5030441;28;20045;-74
2023/08/28 03:56:15;;;;;;;4.30;3.90;;;;;;;;;;5023356;28;20050;-74
2023/08/28 03:58:41;;;;;;;7.43;3.85;;;;;;;;;;5010683;28;20055;-74
2023/08/28 04:01:07;;;;;;;6.65;3.80;;;;;;;;;;5031833;28;20045;-74
2023/08/28 04:03:33;;;;;;;7.85;4.53;;;;;;;;;;5011806;28;20049;-74
2023/08/28 04:05:59;;;;;;;7.35;4.40;;;;;;;;;;4993781;28;20075;-74
2023/08/28 04:08:26;;;;;;;10.88;4.97;;;;;;;;;;4998487;28;20044;-74
2023/08/28 04:10:55;;;;;;;6.00;4.10;;;;;;;;;;5008561;28;20170;-74
2023/08/28 04:13:21;;;;;;;6.22;4.50;;;;;;;;;;5014021;28;20072;-74
2023/08/28 04:15:47;;;;;;;7.03;4.15;;;;;;;;;;5014544;28;20693;-74
2023/08/28 04:18:13;;;;;;;4.90;4.35;;;;;;;;;;5028634;28;20037;-74
2023/08/28 04:20:40;;;;;;;7.07;4.15;;;;;;;;;;5031844;28;20060;-74
2023/08/28 04:23:06;;;;;;;5.20;4.13;;;;;;;;;;5029207;28;20053;-74
2023/08/28 04:25:32;;;;;;;6.35;3.25;;;;;;;;;;5028108;28;20471;-74
2023/08/28 04:27:58;;;;;;;10.75;4.10;;;;;;;;;;5028107;28;20049;-74
2023/08/28 04:30:25;;;;;;;3.80;3.40;;;;;;;;;;5028285;28;20040;-74
2023/08/28 04:32:51;;;;;;;4.25;3.50;;;;;;;;;;5010151;28;20128;-74
2023/08/28 04:35:17;;;;;;;5.38;4.03;;;;;;;;;;5014187;28;20053;-74
2023/08/28 04:37:43;;;;;;;7.72;4.13;;;;;;;;;;5016051;28;20453;-74
2023/08/28 04:40:09;;;;;;;7.03;4.10;;;;;;;;;;5032897;28;20067;-74
2023/08/28 04:42:35;;;;;;;4.75;3.75;;;;;;;;;;5009349;28;20049;-74
2023/08/28 04:45:01;;;;;;;5.60;3.78;;;;;;;;;;5029280;28;20098;-74
2023/08/28 04:47:27;;;;;;;10.55;4.32;;;;;;;;;;4995391;28;21385;-74
2023/08/28 04:49:54;;;;;;;5.05;4.63;;;;;;;;;;5011415;28;20048;-74
2023/08/28 04:52:20;;;;;;;8.20;4.30;;;;;;;;;;5011928;28;20132;-74
2023/08/28 04:54:46;;;;;;;6.32;4.15;;;;;;;;;;5028601;28;20090;-74
2023/08/28 04:57:12;;;;;;;5.30;3.85;;;;;;;;;;5011567;28;20817;-74
2023/08/28 04:59:39;;;;;;;4.90;4.40;;;;;;;;;;5024337;28;20048;-74
2023/08/28 05:02:05;;;;;;;5.28;4.07;;;;;;;;;;5028050;28;20060;-74
2023/08/28 05:04:31;;;;;;;10.25;4.40;;;;;;;;;;5028349;28;20079;-74
2023/08/28 05:06:57;;;;;;;10.38;4.68;;;;;;;;;;5011247;28;20048;-74
2023/08/28 05:09:24;;;;;;;8.40;4.15;;;;;;;;;;5028427;28;20043;-74
2023/08/28 05:11:50;;;;;;;9.93;4.47;;;;;;;;;;5030163;28;20045;-74
2023/08/28 05:14:16;;;;;;;7.15;4.00;;;;;;;;;;4992691;28;20057;-74
2023/08/28 05:16:42;;;;;;;5.90;3.55;;;;;;;;;;5012173;28;20098;-74
2023/08/28 05:19:08;;;;;;;7.13;3.95;;;;;;;;;;5031928;28;20064;-74
2023/08/28 05:21:34;;;;;;;5.32;3.67;;;;;;;;;;5031275;28;20052;-74
2023/08/28 05:24:00;;;;;;;7.70;3.97;;;;;;;;;;5031654;28;20103;-74
2023/08/28 05:26:26;;;;;;;6.38;4.00;;;;;;;;;;4995947;28;20053;-74
2023/08/28 05:28:52;;;;;;;7.43;3.72;;;;;;;;;;5028501;28;20065;-74
2023/08/28 05:31:18;;;;;;;5.00;3.55;;;;;;;;;;5014745;28;20059;-74
2023/08/28 05:33:44;;;;;;;6.63;4.10;;;;;;;;;;5010158;28;20049;-74
2023/08/28 05:36:10;;;;;;;6.25;4.03;;;;;;;;;;4992426;28;20514;-74
2023/08/28 05:38:37;;;;;;;11.55;3.80;;;;;;;;;;5007917;28;20106;-74
2023/08/28 05:41:03;;;;;;;6.30;3.58;;;;;;;;;;5028045;28;20041;-74
2023/08/28 05:43:29;;;;;;;6.32;3.90;;;;;;;;;;4998638;28;20072;-74
2023/08/28 05:45:55;;;;;;;12.07;4.55;;;;;;;;;;5009123;28;20046;-74
2023/08/28 05:48:21;;;;;;;6.97;3.78;;;;;;;;;;5025121;28;20052;-73
2023/08/28 05:50:50;;;;;;;4.78;3.80;;;;;;;;;;5007657;28;20053;-74
2023/08/28 05:53:17;;;;;;;5.88;4.43;;;;;;;;;;5006181;28;22078;-74
2023/08/28 05:55:43;;;;;;;7.40;4.07;;;;;;;;;;5010439;28;20036;-74
2023/08/28 05:58:09;;;;;;;4.35;3.90;;;;;;;;;;5012190;28;20168;-74
2023/08/28 06:00:35;;;;;;;6.40;4.20;;;;;;;;;;5020697;28;20170;-74
2023/08/28 06:03:01;;;;;;;5.55;3.60;;;;;;;;;;5014425;28;20036;-74
2023/08/28 06:05:27;;;;;;;7.13;4.22;;;;;;;;;;5014191;28;20045;-74
2023/08/28 06:07:53;;;;;;;5.93;3.70;;;;;;;;;;5029995;28;20670;-73
2023/08/28 06:10:19;;;;;;;5.47;4.00;;;;;;;;;;5034035;28;20047;-74
2023/08/28 06:12:49;;;;;;;8.65;3.50;;;;;;;;;;5011043;28;20584;-76
2023/08/28 06:15:18;;;;;;;4.43;3.92;;;;;;;;;;5037548;28;20037;-70
2023/08/28 06:17:45;;;;;;;5.30;3.67;;;;;;;;;;5036331;28;20560;-71
2023/08/28 06:20:11;;;;;;;3.55;3.22;;;;;;;;;;5008998;28;20639;-71
2023/08/28 06:22:38;;;;;;;8.52;4.03;;;;;;;;;;5030759;28;20167;-70
2023/08/28 06:25:04;;;;;;;7.75;3.70;;;;;;;;;;5015484;28;20135;-70
2023/08/28 06:27:31;;;;;;;9.82;3.47;;;;;;;;;;5030359;28;20484;-71
2023/08/28 06:29:57;;;;;;;7.38;3.75;;;;;;;;;;5033907;28;21004;-70
2023/08/28 06:32:23;;;;;;;7.70;3.80;;;;;;;;;;5030480;28;20665;-70
2023/08/28 06:34:49;;;;;;;9.55;3.55;;;;;;;;;;5032780;28;20047;-70
2023/08/28 06:37:15;;;;;;;7.05;3.60;;;;;;;;;;5030426;28;20045;-70
2023/08/28 06:39:41;;;;;;;5.00;3.28;;;;;;;;;;5029852;28;20041;-70
2023/08/28 06:42:08;;;;;;;5.68;3.13;;;;;;;;;;5031287;28;20055;-70
2023/08/28 06:44:34;;;;;;;7.35;3.17;;;;;;;;;;5029798;28;20044;-70
2023/08/28 06:47:00;;;;;;;3.33;2.88;;;;;;;;;;5015302;28;20052;-70
2023/08/28 06:49:26;;;;;;;13.90;3.25;;;;;;;;;;5012650;28;20573;-71
2023/08/28 06:51:52;;;;;;;4.30;3.10;;;;;;;;;;5034262;28;20044;-71
2023/08/28 06:54:18;;;;;;;4.97;3.03;;;;;;;;;;5033750;28;20049;-71
2023/08/28 06:56:44;;;;;;;5.22;3.10;;;;;;;;;;5034350;28;20048;-71
2023/08/28 06:59:11;;;;;;;8.73;2.97;;;;;;;;;;5035017;28;20129;-71
2023/08/28 07:01:37;;;;;;;6.13;3.50;;;;;;;;;;5032852;28;20045;-71
2023/08/28 07:04:04;;;;;;;4.10;2.25;;;;;;;;;;5033919;28;20068;-71
2023/08/28 07:06:31;;;;;;;8.18;2.85;;;;;;;;;;5018682;28;20045;-71
2023/08/28 07:08:57;;;;;;;4.85;2.17;;;;;;;;;;5033320;28;20044;-71
2023/08/28 07:11:23;;;;;;;9.65;2.40;;;;;;;;;;5016934;28;20058;-71
2023/08/28 07:13:50;;;;;;;6.57;2.47;;;;;;;;;;5033879;28;20072;-71
2023/08/28 07:16:16;;;;;;;4.82;2.65;;;;;;;;;;5034434;28;20139;-71
2023/08/28 07:18:43;;;;;;;5.05;2.53;;;;;;;;;;5015724;28;20048;-71
2023/08/28 07:21:09;;;;;;;6.63;2.53;;;;;;;;;;5021811;28;20576;-71
2023/08/28 07:23:38;;;;;;;5.47;2.78;;;;;;;;;;5035904;28;20040;-88
2023/08/28 07:26:06;;;;;;;5.28;2.67;;;;;;;;;;5028673;28;20075;-88
2023/08/28 07:28:32;;;;;;;5.38;2.70;;;;;;;;;;5028171;28;20401;-89
2023/08/28 07:31:00;;;;;;;7.55;2.72;;;;;;;;;;5033264;28;20501;-89
2023/08/28 07:33:26;;;;;;;3.85;2.60;;;;;;;;;;5027666;28;20040;-89
2023/08/28 07:35:52;;;;;;;5.15;2.80;;;;;;;;;;5008646;28;20041;-90
2023/08/28 07:38:18;;;;;;;4.90;2.38;;;;;;;;;;5040657;28;20040;-89
2023/08/28 07:40:46;;;;;;;2.53;2.00;;;;;;;;;;5022167;28;20045;-89
2023/08/28 07:43:13;;;;;;;3.95;2.35;;;;;;;;;;5022184;28;20040;-87
2023/08/28 07:45:39;;;;;;;3.00;2.25;;;;;;;;;;5043314;28;20044;-88
2023/08/28 07:48:05;;;;;;;11.20;2.40;;;;;;;;;;5020092;28;20056;-88
2023/08/28 07:50:34;;;;;;;7.07;2.10;;;;;;;;;;5003490;28;20652;-86
2023/08/28 07:53:00;;;;;;;5.32;1.80;;;;;;;;;;5035536;28;20101;-85
2023/08/28 07:55:27;;;;;;;4.60;1.88;;;;;;;;;;5018410;28;20040;-86
2023/08/28 07:57:53;;;;;;;5.53;1.75;;;;;;;;;;5035760;28;20037;-87
2023/08/28 08:00:22;;;;;;;8.52;2.05;;;;;;;;;;5018059;28;20052;-85
2023/08/28 08:02:51;;;;;;;6.20;2.00;;;;;;;;;;5019010;28;20125;-86
2023/08/28 08:05:17;;;;;;;3.70;1.50;;;;;;;;;;5034865;28;20111;-86
2023/08/28 08:07:44;;;;;;;7.22;1.67;;;;;;;;;;5018870;28;21065;-83
2023/08/28 08:10:11;;;;;;;4.18;1.70;;;;;;;;;;5019806;28;20048;-85
2023/08/28 08:12:40;;;;;;;4.05;1.92;;;;;;;;;;5029639;28;20097;-85
2023/08/28 08:15:07;;;;;;;3.95;1.67;;;;;;;;;;5030393;28;20083;-86
2023/08/28 08:17:35;;;;;;;6.53;1.65;;;;;;;;;;5040549;28;20086;-86
2023/08/28 08:20:01;;;;;;;5.43;1.95;;;;;;;;;;5019767;28;20085;-86
2023/08/28 08:22:27;;;;;;;5.43;2.03;;;;;;;;;;5012998;28;20063;-86
2023/08/28 08:24:53;;;;;;;4.43;2.05;;;;;;;;;;4998954;28;20050;-86
2023/08/28 08:27:19;;;;;;;4.13;1.88;;;;;;;;;;5002846;28;20401;-84
2023/08/28 08:29:45;;;;;;;6.85;2.10;;;;;;;;;;5013226;28;20041;-87
2023/08/28 08:32:12;;;;;;;5.13;1.85;;;;;;;;;;5016465;28;20049;-86
2023/08/28 08:34:38;;;;;;;4.03;1.85;;;;;;;;;;5006486;28;20060;-87
2023/08/28 08:37:04;;;;;;;7.45;1.80;;;;;;;;;;5031256;28;20041;-86
2023/08/28 08:39:30;;;;;;;2.67;1.55;;;;;;;;;;5028237;28;20037;-87
2023/08/28 08:41:56;;;;;;;6.68;2.05;;;;;;;;;;5027887;28;20083;-87
2023/08/28 08:44:22;;;;;;;4.15;1.40;;;;;;;;;;5030906;28;20049;-87
2023/08/28 08:46:49;;;;;;;3.63;1.33;;;;;;;;;;5020521;28;20138;-87
2023/08/28 08:49:19;;;;;;;5.43;1.10;;;;;;;;;;5027926;28;20488;-86
2023/08/28 08:51:46;;;;;;;2.17;0.70;;;;;;;;;;5030399;28;20037;-86
2023/08/28 08:54:19;;;;;;;2.63;1.02;;;;;;;;;;5022554;28;20133;-87
2023/08/28 08:56:47;;;;;;;4.95;0.85;;;;;;;;;;5023725;28;20049;-86
2023/08/28 08:59:14;;;;;;;4.00;0.90;;;;;;;;;;5027352;28;20068;-86
2023/08/28 09:01:40;;;;;;;2.78;0.90;;;;;;;;;;5015870;28;20041;-86
2023/08/28 09:04:06;;;;;;;2.20;1.15;;;;;;;;;;5030169;28;20040;-87
2023/08/28 09:06:34;;;;;;;5.10;0.93;;;;;;;;;;5029169;28;20055;-84
2023/08/28 09:09:00;;;;;;;6.45;1.00;;;;;;;;;;5028566;28;20045;-87
2023/08/28 09:11:26;;;;;;;7.30;0.80;;;;;;;;;;5012218;28;20050;-86
2023/08/28 09:13:52;;;;;;;1.20;0.60;;;;;;;;;;5030146;28;21868;-86
2023/08/28 09:16:19;;;;;;;5.88;0.85;;;;;;;;;;5031782;28;20084;-86
2023/08/28 09:18:46;;;;;;;3.78;1.10;;;;;;;;;;5026412;28;20039;-85
2023/08/28 09:21:13;;;;;;;2.05;0.57;;;;;;;;;;5009855;28;20045;-85
2023/08/28 09:23:50;;;;;;;1.08;0.65;;;;;;;;;;5030641;28;20596;-84
2023/08/28 09:26:18;;;;;;;4.90;1.55;;;;;;;;;;5032939;28;20037;-85
2023/08/28 09:28:59;;;;;;;3.20;0.75;;;;;;;;;;5018413;28;20040;-86
2023/08/28 09:31:29;;;;;;;1.88;0.77;;;;;;;;;;5033913;28;20094;-85
2023/08/28 09:33:55;;;;;;;1.88;0.80;;;;;;;;;;5037576;28;20060;-86
2023/08/28 09:36:21;;;;;;;2.15;0.93;;;;;;;;;;5037166;28;20037;-85
2023/08/28 09:38:47;;;;;;;1.75;1.17;;;;;;;;;;5020432;28;20466;-85
2023/08/28 09:41:14;;;;;;;3.42;0.98;;;;;;;;;;5035465;28;20045;-85
2023/08/28 09:43:40;;;;;;;3.38;1.00;;;;;;;;;;5016559;28;21631;-87
2023/08/28 09:46:06;;;;;;;3.88;0.90;;;;;;;;;;5018147;28;20110;-87
2023/08/28 09:48:33;;;;;;;5.35;1.33;;;;;;;;;;5015449;28;20278;-86
2023/08/28 09:51:06;;;;;;;2.45;1.05;;;;;;;;;;5015174;28;20052;-84
2023/08/28 09:53:33;;;;;;;3.25;1.02;;;;;;;;;;5035868;28;20044;-84
2023/08/28 09:55:59;;;;;;;4.88;1.00;;;;;;;;;;5033935;28;20131;-85
2023/08/28 09:58:26;;;;;;;4.15;1.17;;;;;;;;;;5015358;28;20048;-86
2023/08/28 10:00:53;;;;;;;2.65;0.95;;;;;;;;;;4999931;28;20040;-84
2023/08/28 10:03:20;;;;;;;3.95;0.88;;;;;;;;;;5016256;28;20049;-86
2023/08/28 10:05:47;;;;;;;4.38;1.00;;;;;;;;;;4997247;28;20044;-85
2023/08/28 10:08:14;;;;;;;2.47;1.00;;;;;;;;;;5015551;28;20701;-85
2023/08/28 10:10:41;;;;;;;0.93;0.70;;;;;;;;;;5015626;28;20491;-85
2023/08/28 10:13:10;;;;;;;0.75;0.57;;;;;;;;;;5015405;28;20063;-72
2023/08/28 10:15:41;;;;;;;1.88;0.93;;;;;;;;;;5032033;28;20049;-71
2023/08/28 10:18:09;;;;;;;2.03;0.95;;;;;;;;;;5014314;28;20045;-71
2023/08/28 10:20:36;;;;;;;2.33;0.98;;;;;;;;;;5032177;28;20401;-72
2023/08/28 10:23:03;;;;;;;1.83;1.02;;;;;;;;;;5030990;28;20033;-72
2023/08/28 10:25:30;;;;;;;2.75;1.08;;;;;;;;;;5013177;28;20115;-72
2023/08/28 10:27:57;;;;;;;3.45;1.60;;;;;;;;;;5033242;28;20056;-72
2023/08/28 10:30:23;;;;;;;3.55;1.88;;;;;;;;;;5030562;28;20444;-72
2023/08/28 10:32:51;;;;;;;7.50;1.40;;;;;;;;;;5033669;28;20048;-71
2023/08/28 10:35:18;;;;;;;2.45;1.08;;;;;;;;;;5014582;28;20056;-71
2023/08/28 10:37:44;;;;;;;1.77;1.10;;;;;;;;;;5032118;28;20691;-71
2023/08/28 10:40:11;;;;;;;4.72;1.30;;;;;;;;;;5033149;28;20049;-72
2023/08/28 10:42:38;;;;;;;3.45;1.27;;;;;;;;;;5031476;28;20086;-71
2023/08/28 10:45:04;;;;;;;1.95;1.10;;;;;;;;;;5030921;28;20107;-72
2023/08/28 10:47:30;;;;;;;3.90;1.30;;;;;;;;;;5031481;28;20136;-73
2023/08/28 10:49:56;;;;;;;1.52;1.10;;;;;;;;;;5030160;28;20103;-73
2023/08/28 10:52:23;;;;;;;3.55;1.35;;;;;;;;;;5033800;28;20404;-73
2023/08/28 10:54:50;;;;;;;3.53;1.30;;;;;;;;;;5029273;28;20072;-71
2023/08/28 10:57:22;;;;;;;2.08;1.13;;;;;;;;;;5031468;28;20044;-72
2023/08/28 10:59:49;;;;;;;3.30;1.25;;;;;;;;;;5010569;28;20582;-72
2023/08/28 11:02:15;;;;;;;3.55;0.95;;;;;;;;;;5033686;28;20044;-72
2023/08/28 11:04:41;;;;;;;2.40;1.35;;;;;;;;;;5031017;28;20216;-72
2023/08/28 11:07:27;;;;;;;2.72;0.98;;;;;;;;;;5013887;28;20090;-72
2023/08/28 11:10:13;;;;;;;3.15;1.08;;;;;;;;;;5015454;28;20053;-73
2023/08/28 11:12:52;;;;;;;3.85;1.13;;;;;;;;;;5015948;28;20053;-72
2023/08/28 11:15:26;;;;;;;4.13;0.90;;;;;;;;;;5032077;28;20040;-72
2023/08/28 11:18:12;;;;;;;2.67;1.25;;;;;;;;;;5015009;28;20048;-73
2023/08/28 11:20:38;;;;;;;2.67;1.15;;;;;;;;;;5031335;28;20061;-72
2023/08/28 11:23:04;;;;;;;3.92;1.38;;;;;;;;;;5031461;28;20053;-72
2023/08/28 11:25:37;;;;;;;1.58;0.70;;;;;;;;;;5013471;28;20048;-72
2023/08/28 11:28:04;;;;;;;2.05;0.80;;;;;;;;;;5014043;28;20909;-72
2023/08/28 11:30:30;;;;;;;1.60;0.80;;;;;;;;;;5031234;28;20579;-72
2023/08/28 11:32:56;;;;;;;1.52;0.90;;;;;;;;;;5033120;28;20266;-73
2023/08/28 11:35:23;;;;;;;3.00;0.93;;;;;;;;;;5012026;28;20161;-73
2023/08/28 11:37:53;;;;;;;2.28;0.88;;;;;;;;;;5033499;28;20055;-72
2023/08/28 11:40:23;;;;;;;1.35;0.77;;;;;;;;;;5031708;28;21711;-72
2023/08/28 11:42:49;;;;;;;2.42;0.90;;;;;;;;;;5016497;28;20385;-73
2023/08/28 11:45:22;;;;;;;1.02;0.90;;;;;;;;;;5029948;28;20045;-73
2023/08/28 11:47:49;;;;;;;3.25;1.00;;;;;;;;;;5032039;28;20080;-72
2023/08/28 11:50:18;;;;;;;2.97;1.13;;;;;;;;;;5028688;28;20045;-72
2023/08/28 11:52:53;;;;;;;1.15;0.88;;;;;;;;;;5017699;28;20049;-83
2023/08/28 11:55:19;;;;;;;2.13;1.10;;;;;;;;;;5014414;28;20045;-86
2023/08/28 11:57:45;;;;;;;4.43;1.13;;;;;;;;;;5007733;28;20646;-85
2023/08/28 12:00:15;;;;;;;3.50;1.48;;;;;;;;;;5015283;28;20048;-84
2023/08/28 12:02:46;;;;;;;3.70;1.20;;;;;;;;;;4999475;28;20542;-84
2023/08/28 12:05:17;;;;;;;3.80;1.30;;;;;;;;;;5034052;28;20077;-84
2023/08/28 12:07:44;;;;;;;1.50;0.80;;;;;;;;;;5017286;28;20063;-85
2023/08/28 12:10:11;;;;;;;1.98;0.80;;;;;;;;;;5033616;28;20040;-85
2023/08/28 12:12:37;;;;;;;1.92;0.63;;;;;;;;;;5032190;28;20045;-85
2023/08/28 12:15:04;;;;;;;4.68;1.40;;;;;;;;;;5032088;28;20044;-84
2023/08/28 12:17:30;;;;;;;3.35;1.30;;;;;;;;;;5016305;28;20044;-84
2023/08/28 12:19:56;;;;;;;1.33;0.93;;;;;;;;;;5033499;28;21803;-84
2023/08/28 12:22:24;;;;;;;1.33;1.02;;;;;;;;;;4999541;28;20044;-84
2023/08/28 12:24:50;;;;;;;3.40;1.17;;;;;;;;;;5019340;28;20064;-84
2023/08/28 12:27:17;;;;;;;2.55;0.93;;;;;;;;;;5018764;28;20049;-84
2023/08/28 12:29:43;;;;;;;4.20;1.02;;;;;;;;;;5036168;28;20045;-84
2023/08/28 12:32:15;;;;;;;2.95;1.00;;;;;;;;;;5000836;28;20493;-83
2023/08/28 12:34:42;;;;;;;3.00;1.10;;;;;;;;;;5032925;28;20051;-83
2023/08/28 12:37:09;;;;;;;1.55;1.00;;;;;;;;;;5016164;28;20072;-84
2023/08/28 12:39:36;;;;;;;3.42;0.95;;;;;;;;;;5033466;28;20144;-84
2023/08/28 12:42:03;;;;;;;1.33;0.80;;;;;;;;;;5034298;28;20041;-83
2023/08/28 12:44:30;;;;;;;3.30;1.35;;;;;;;;;;5016132;28;20511;-82
2023/08/28 12:46:57;;;;;;;3.60;0.98;;;;;;;;;;5014221;28;20063;-84
2023/08/28 12:49:23;;;;;;;3.33;1.08;;;;;;;;;;5012520;28;20493;-83
2023/08/28 12:51:49;;;;;;;5.97;2.15;;;;;;;;;;4997704;28;20066;-84
2023/08/28 12:54:19;;;;;;;1.92;1.00;;;;;;;;;;5011769;28;20059;-84
2023/08/28 12:56:46;;;;;;;2.08;0.85;;;;;;;;;;5026780;28;20490;-83
2023/08/28 12:59:13;;;;;;;1.98;0.82;;;;;;;;;;5013755;28;20043;-83
2023/08/28 13:01:39;;;;;;;2.42;1.00;;;;;;;;;;5012034;28;22007;-84
2023/08/28 13:04:05;;;;;;;3.08;1.00;;;;;;;;;;5032147;28;20044;-84
2023/08/28 13:06:31;;;;;;;0.95;0.70;;;;;;;;;;5030256;28;20033;-83
2023/08/28 13:08:57;;;;;;;2.10;0.90;;;;;;;;;;4999530;28;20627;-83
2023/08/28 13:11:24;;;;;;;1.65;0.82;;;;;;;;;;5016121;28;20045;-82
2023/08/28 13:13:50;;;;;;;3.90;1.10;;;;;;;;;;5032768;28;20043;-82
2023/08/28 13:16:16;;;;;;;4.75;1.00;;;;;;;;;;5033344;28;20045;-82
2023/08/28 13:18:42;;;;;;;1.80;0.80;;;;;;;;;;5015611;28;20072;-83
2023/08/28 13:21:10;;;;;;;1.95;0.80;;;;;;;;;;5032726;28;20187;-83
2023/08/28 13:23:36;;;;;;;2.97;0.75;;;;;;;;;;5014265;28;20041;-83
2023/08/28 13:26:03;;;;;;;3.40;0.93;;;;;;;;;;5000474;28;20602;-83
2023/08/28 13:28:29;;;;;;;3.03;0.85;;;;;;;;;;4998984;28;20045;-83
2023/08/28 13:30:55;;;;;;;1.60;0.73;;;;;;;;;;5000182;28;20068;-83
2023/08/28 13:33:21;;;;;;;2.33;1.27;;;;;;;;;;5016471;28;20041;-82
2023/08/28 13:35:48;;;;;;;2.65;0.70;;;;;;;;;;5030633;28;20052;-82
2023/08/28 13:38:15;;;;;;;1.30;0.80;;;;;;;;;;4999025;28;20044;-84
2023/08/28 13:40:41;;;;;;;2.00;0.60;;;;;;;;;;5014480;28;21925;-82
2023/08/28 13:43:07;;;;;;;1.38;0.70;;;;;;;;;;4984249;28;20135;-83
2023/08/28 13:45:33;;;;;;;2.33;0.80;;;;;;;;;;5014518;28;20052;-84
2023/08/28 13:48:00;;;;;;;2.80;0.82;;;;;;;;;;5016352;28;20044;-82
2023/08/28 13:50:26;;;;;;;1.67;0.70;;;;;;;;;;4996875;28;20132;-81
2023/08/28 13:52:52;;;;;;;2.60;0.80;;;;;;;;;;4997999;28;20041;-82
2023/08/28 13:55:19;;;;;;;1.50;0.80;;;;;;;;;;5014966;28;20064;-82
2023/08/28 13:57:45;;;;;;;0.80;0.60;;;;;;;;;;5015637;28;20711;-82
2023/08/28 14:00:14;;;;;;;1.48;0.70;;;;;;;;;;5015707;28;20040;-82
2023/08/28 14:02:41;;;;;;;1.40;0.70;;;;;;;;;;5014103;28;20087;-82
2023/08/28 14:05:13;;;;;;;1.20;0.65;;;;;;;;;;5018012;28;20080;-82
2023/08/28 14:07:40;;;;;;;1.70;0.73;;;;;;;;;;5012126;28;20053;-81
2023/08/28 14:10:07;;;;;;;2.63;0.80;;;;;;;;;;5016717;28;20045;-82
2023/08/28 14:12:33;;;;;;;2.78;0.75;;;;;;;;;;5015255;28;21360;-82
2023/08/28 14:15:03;;;;;;;1.70;0.60;;;;;;;;;;5015453;28;20060;-82
2023/08/28 14:17:30;;;;;;;4.53;0.90;;;;;;;;;;5015395;28;20497;-85
2023/08/28 14:19:56;;;;;;;1.63;0.60;;;;;;;;;;5013816;28;20128;-83
2023/08/28 14:22:22;;;;;;;2.08;0.70;;;;;;;;;;5015841;28;20037;-82
2023/08/28 14:24:49;;;;;;;1.35;0.70;;;;;;;;;;5034399;28;20047;-82
2023/08/28 14:27:15;;;;;;;0.70;0.63;;;;;;;;;;5036095;28;20386;-83
2023/08/28 14:29:41;;;;;;;1.67;0.95;;;;;;;;;;5018779;28;20094;-83
2023/08/28 14:32:09;;;;;;;0.88;0.60;;;;;;;;;;5034730;28;20394;-82
2023/08/28 14:34:35;;;;;;;4.43;0.70;;;;;;;;;;5002170;28;20040;-82
2023/08/28 14:37:01;;;;;;;2.15;0.90;;;;;;;;;;5024991;28;20087;-83
2023/08/28 14:39:27;;;;;;;2.72;0.50;;;;;;;;;;5001957;28;20044;-83
2023/08/28 14:41:54;;;;;;;1.42;0.45;;;;;;;;;;5017697;28;20679;-83